createdAt,value
2023-04-27T00:01:03.555Z,14.31
2023-04-27T00:03:30.128Z,14.31
2023-04-27T00:05:56.703Z,14.37
2023-04-27T00:08:23.278Z,14.27
2023-04-27T00:10:49.677Z,14.24
2023-04-27T00:13:16.033Z,14.17
2023-04-27T00:15:42.391Z,14.10
2023-04-27T00:18:08.762Z,14.05
2023-04-27T00:20:35.170Z,13.96
2023-04-27T00:23:01.517Z,13.89
2023-04-27T00:25:27.911Z,13.86
2023-04-27T00:27:54.307Z,13.81
2023-04-27T00:30:20.727Z,13.71
2023-04-27T00:32:47.132Z,13.63
2023-04-27T00:35:13.556Z,13.60
2023-04-27T00:37:39.910Z,13.61
2023-04-27T00:40:06.252Z,13.56
2023-04-27T00:42:32.596Z,13.53
2023-04-27T00:44:58.983Z,13.52
2023-04-27T00:47:25.375Z,13.49
2023-04-27T00:49:51.785Z,13.42
2023-04-27T00:52:18.176Z,13.35
2023-04-27T00:54:44.542Z,13.32
2023-04-27T00:57:10.925Z,13.26
2023-04-27T00:59:37.355Z,13.30
2023-04-27T01:02:03.733Z,13.28
2023-04-27T01:04:30.214Z,13.27
2023-04-27T01:06:56.795Z,13.25
2023-04-27T01:09:23.501Z,13.22
2023-04-27T01:11:49.925Z,13.22
2023-04-27T01:14:16.345Z,13.30
2023-04-27T01:16:42.721Z,13.23
2023-04-27T01:19:09.099Z,13.21
2023-04-27T01:21:35.457Z,13.28
2023-04-27T01:24:01.802Z,13.28
2023-04-27T01:26:28.184Z,13.26
2023-04-27T01:28:54.575Z,13.23
2023-04-27T01:31:21.013Z,13.23
2023-04-27T01:33:47.426Z,13.27
2023-04-27T01:36:13.771Z,13.25
2023-04-27T01:38:40.109Z,13.22
2023-04-27T01:41:06.505Z,13.22
2023-04-27T01:43:32.881Z,13.06
2023-04-27T01:45:59.312Z,12.94
2023-04-27T01:48:25.679Z,12.87
2023-04-27T01:50:52.063Z,12.87
2023-04-27T01:53:18.450Z,12.78
2023-04-27T01:55:44.800Z,12.86
2023-04-27T01:58:11.154Z,12.89
2023-04-27T02:00:37.496Z,12.88
2023-04-27T02:03:04.220Z,12.91
2023-04-27T02:05:30.689Z,12.92
2023-04-27T02:07:57.063Z,12.77
2023-04-27T02:10:23.442Z,12.81
2023-04-27T02:12:49.850Z,12.79
2023-04-27T02:15:16.201Z,12.79
2023-04-27T02:17:42.624Z,12.84
2023-04-27T02:20:09.043Z,12.89
2023-04-27T02:22:35.398Z,12.91
2023-04-27T02:25:01.793Z,12.89
2023-04-27T02:27:28.184Z,12.76
2023-04-27T02:29:55.039Z,12.70
2023-04-27T02:32:21.858Z,12.48
2023-04-27T02:34:48.254Z,12.28
2023-04-27T02:37:14.595Z,12.36
2023-04-27T02:39:40.928Z,12.35
2023-04-27T02:42:07.308Z,12.30
2023-04-27T02:44:33.665Z,12.34
2023-04-27T02:47:00.188Z,12.33
2023-04-27T02:49:26.646Z,12.37
2023-04-27T02:51:53.024Z,12.39
2023-04-27T02:54:19.377Z,12.44
2023-04-27T02:56:45.785Z,12.38
2023-04-27T02:59:12.432Z,12.19
2023-04-27T03:01:39.108Z,12.09
2023-04-27T03:04:05.800Z,12.08
2023-04-27T03:06:32.334Z,12.13
2023-04-27T03:08:58.725Z,12.21
2023-04-27T03:11:25.122Z,12.17
2023-04-27T03:13:51.505Z,12.18
2023-04-27T03:16:17.967Z,11.98
2023-04-27T03:18:44.388Z,12.01
2023-04-27T03:21:10.768Z,12.06
2023-04-27T03:23:37.128Z,12.09
2023-04-27T03:26:03.530Z,12.06
2023-04-27T03:28:29.943Z,12.03
2023-04-27T03:30:56.325Z,11.98
2023-04-27T03:33:22.732Z,11.97
2023-04-27T03:35:49.137Z,12.05
2023-04-27T03:38:15.516Z,12.08
2023-04-27T03:40:41.912Z,12.05
2023-04-27T03:43:08.301Z,11.90
2023-04-27T03:45:34.683Z,11.78
2023-04-27T03:48:01.133Z,11.76
2023-04-27T03:50:28.415Z,11.76
2023-04-27T03:52:56.386Z,11.90
2023-04-27T03:55:22.795Z,11.95
2023-04-27T03:57:49.157Z,11.91
2023-04-27T04:00:15.507Z,11.82
2023-04-27T04:02:41.983Z,11.78
2023-04-27T04:05:08.460Z,11.88
2023-04-27T04:07:34.849Z,11.84
2023-04-27T04:10:01.204Z,11.78
2023-04-27T04:12:27.576Z,11.64
2023-04-27T04:14:53.926Z,11.53
2023-04-27T04:17:20.304Z,11.44
2023-04-27T04:19:46.661Z,11.53
2023-04-27T04:22:13.053Z,11.60
2023-04-27T04:24:39.454Z,11.59
2023-04-27T04:27:05.802Z,11.53
2023-04-27T04:29:32.152Z,11.59
2023-04-27T04:31:58.491Z,11.61
2023-04-27T04:34:24.873Z,11.67
2023-04-27T04:36:51.273Z,11.72
2023-04-27T04:39:17.656Z,11.70
2023-04-27T04:41:44.032Z,11.74
2023-04-27T04:44:10.390Z,11.72
2023-04-27T04:46:36.813Z,11.84
2023-04-27T04:49:03.198Z,12.00
2023-04-27T04:51:29.608Z,12.06
2023-04-27T04:53:55.992Z,12.13
2023-04-27T04:56:22.477Z,12.19
2023-04-27T04:58:48.859Z,12.31
2023-04-27T05:01:15.282Z,12.37
2023-04-27T05:03:41.852Z,12.34
2023-04-27T05:06:08.260Z,12.42
2023-04-27T05:08:34.594Z,12.57
2023-04-27T05:11:00.989Z,12.64
2023-04-27T05:13:27.396Z,12.69
2023-04-27T05:15:53.819Z,12.74
2023-04-27T05:18:20.216Z,12.83
2023-04-27T05:20:46.634Z,12.88
2023-04-27T05:23:13.045Z,12.92
2023-04-27T05:25:39.388Z,12.99
2023-04-27T05:28:05.746Z,12.96
2023-04-27T05:30:32.132Z,13.00
2023-04-27T05:32:58.502Z,12.96
2023-04-27T05:35:24.912Z,12.93
2023-04-27T05:37:51.253Z,13.03
2023-04-27T05:40:17.692Z,13.04
2023-04-27T05:42:44.051Z,13.21
2023-04-27T05:45:10.444Z,13.32
2023-04-27T05:47:36.851Z,13.38
2023-04-27T05:50:03.237Z,13.35
2023-04-27T05:52:29.632Z,13.45
2023-04-27T05:54:55.982Z,13.50
2023-04-27T05:57:22.374Z,13.54
2023-04-27T05:59:48.729Z,13.64
2023-04-27T06:02:15.134Z,13.73
2023-04-27T06:04:41.576Z,13.78
2023-04-27T06:07:08.000Z,13.80
2023-04-27T06:09:34.381Z,13.76
2023-04-27T06:12:00.731Z,13.82
2023-04-27T06:14:27.122Z,13.93
2023-04-27T06:16:53.471Z,13.95
2023-04-27T06:19:19.814Z,13.94
2023-04-27T06:21:46.208Z,14.00
2023-04-27T06:24:12.557Z,14.06
2023-04-27T06:26:38.948Z,14.12
2023-04-27T06:29:05.297Z,14.16
2023-04-27T06:31:31.672Z,14.21
2023-04-27T06:33:58.074Z,14.16
2023-04-27T06:36:24.421Z,14.16
2023-04-27T06:38:50.781Z,14.17
2023-04-27T06:41:17.153Z,14.11
2023-04-27T06:43:43.499Z,14.05
2023-04-27T06:46:09.947Z,14.12
2023-04-27T06:48:36.373Z,14.10
2023-04-27T06:51:02.764Z,14.13
2023-04-27T06:53:29.121Z,14.16
2023-04-27T06:55:55.582Z,14.18
2023-04-27T06:58:21.980Z,14.19
2023-04-27T07:00:48.336Z,14.22
2023-04-27T07:03:14.820Z,14.32
2023-04-27T07:05:41.332Z,14.40
2023-04-27T07:08:08.837Z,14.41
2023-04-27T07:10:35.571Z,14.50
2023-04-27T07:13:01.973Z,14.59
2023-04-27T07:15:28.339Z,14.80
2023-04-27T07:17:54.779Z,14.95
2023-04-27T07:20:21.142Z,15.10
2023-04-27T07:22:47.494Z,15.23
2023-04-27T07:25:13.874Z,15.18
2023-04-27T07:27:40.267Z,15.25
2023-04-27T07:30:06.658Z,15.38
2023-04-27T07:32:33.025Z,15.39
2023-04-27T07:34:59.409Z,15.34
2023-04-27T07:37:25.756Z,15.27
2023-04-27T07:39:52.099Z,15.22
2023-04-27T07:42:18.432Z,15.23
2023-04-27T07:44:44.845Z,15.23
2023-04-27T07:47:11.201Z,15.12
2023-04-27T07:49:37.728Z,15.09
2023-04-27T07:52:04.118Z,15.19
2023-04-27T07:54:30.455Z,15.28
2023-04-27T07:56:56.835Z,15.32
2023-04-27T07:59:23.237Z,15.32
2023-04-27T08:01:49.591Z,15.25
2023-04-27T08:04:16.418Z,15.29
2023-04-27T08:06:43.168Z,15.40
2023-04-27T08:09:09.851Z,15.38
2023-04-27T08:11:36.248Z,15.44
2023-04-27T08:14:02.653Z,15.60
2023-04-27T08:16:29.128Z,15.74
2023-04-27T08:18:55.496Z,15.82
2023-04-27T08:21:21.838Z,15.90
2023-04-27T08:23:48.220Z,16.11
2023-04-27T08:26:14.563Z,16.28
2023-04-27T08:28:40.943Z,16.28
2023-04-27T08:31:07.374Z,16.37
2023-04-27T08:33:33.799Z,16.55
2023-04-27T08:36:00.208Z,16.62
2023-04-27T08:38:26.589Z,16.40
2023-04-27T08:40:52.981Z,16.61
2023-04-27T08:43:19.329Z,16.74
2023-04-27T08:45:45.726Z,16.84
2023-04-27T08:48:12.092Z,16.87
2023-04-27T08:50:38.440Z,16.79
2023-04-27T08:53:04.827Z,16.78
2023-04-27T08:55:31.181Z,16.83
2023-04-27T08:57:57.552Z,16.78
2023-04-27T09:00:23.952Z,16.84
2023-04-27T09:02:50.424Z,16.97
2023-04-27T09:05:16.913Z,17.00
2023-04-27T09:07:43.317Z,16.96
2023-04-27T09:10:09.702Z,16.86
2023-04-27T09:12:36.099Z,16.72
2023-04-27T09:15:02.445Z,16.73
2023-04-27T09:17:28.952Z,16.78
2023-04-27T09:19:55.331Z,16.82
2023-04-27T09:22:21.707Z,16.87
2023-04-27T09:24:48.105Z,17.01
2023-04-27T09:27:14.495Z,17.05
2023-04-27T09:29:40.919Z,17.10
2023-04-27T09:32:07.288Z,17.18
2023-04-27T09:34:33.640Z,17.27
2023-04-27T09:36:59.987Z,17.39
2023-04-27T09:39:26.323Z,17.51
2023-04-27T09:41:52.715Z,17.65
2023-04-27T09:44:19.110Z,17.51
2023-04-27T09:46:45.471Z,17.58
2023-04-27T09:49:12.019Z,17.63
2023-04-27T09:51:38.541Z,17.67
2023-04-27T09:54:04.911Z,17.66
2023-04-27T09:56:31.301Z,17.57
2023-04-27T09:58:59.749Z,17.62
2023-04-27T10:01:26.213Z,17.74
2023-04-27T10:03:52.845Z,17.96
2023-04-27T10:06:20.445Z,17.88
2023-04-27T10:08:46.850Z,17.97
2023-04-27T10:11:13.237Z,17.78
2023-04-27T10:13:39.617Z,17.82
2023-04-27T10:16:06.001Z,17.83
2023-04-27T10:18:32.410Z,17.89
2023-04-27T10:20:58.762Z,17.83
2023-04-27T10:23:25.186Z,18.11
2023-04-27T10:25:51.537Z,18.05
2023-04-27T10:28:17.925Z,18.10
2023-04-27T10:30:44.316Z,18.01
2023-04-27T10:33:10.774Z,18.01
2023-04-27T10:35:37.230Z,18.02
2023-04-27T10:38:03.580Z,18.00
2023-04-27T10:40:29.961Z,17.91
2023-04-27T10:42:56.323Z,17.78
2023-04-27T10:45:22.722Z,17.85
2023-04-27T10:47:49.120Z,17.80
2023-04-27T10:50:15.501Z,17.87
2023-04-27T10:52:41.842Z,17.78
2023-04-27T10:55:08.234Z,17.77
2023-04-27T10:57:34.638Z,17.95
2023-04-27T11:00:01.026Z,17.96
2023-04-27T11:02:27.481Z,17.98
2023-04-27T11:04:53.980Z,17.96
2023-04-27T11:07:20.412Z,18.00
2023-04-27T11:09:46.765Z,18.00
2023-04-27T11:12:13.170Z,18.00
2023-04-27T11:14:39.498Z,18.05
2023-04-27T11:17:05.881Z,18.06
2023-04-27T11:19:32.291Z,18.13
2023-04-27T11:21:58.658Z,18.39
2023-04-27T11:24:25.003Z,18.51
2023-04-27T11:26:51.346Z,18.70
2023-04-27T11:29:17.830Z,18.91
2023-04-27T11:31:44.333Z,18.89
2023-04-27T11:34:10.732Z,19.02
2023-04-27T11:36:37.123Z,19.32
2023-04-27T11:39:03.510Z,19.39
2023-04-27T11:41:29.900Z,19.23
2023-04-27T11:43:56.285Z,19.24
2023-04-27T11:46:22.732Z,19.18
2023-04-27T11:48:49.182Z,19.36
2023-04-27T11:51:15.539Z,19.42
2023-04-27T11:53:41.922Z,19.56
2023-04-27T11:56:08.283Z,19.42
2023-04-27T11:58:34.661Z,19.44
2023-04-27T12:01:01.014Z,19.75
2023-04-27T12:03:27.485Z,19.81
2023-04-27T12:05:54.044Z,19.78
2023-04-27T12:08:20.518Z,19.88
2023-04-27T12:10:46.862Z,19.89
2023-04-27T12:13:13.240Z,19.80
2023-04-27T12:15:39.630Z,20.04
2023-04-27T12:18:06.049Z,19.95
2023-04-27T12:20:32.476Z,19.90
2023-04-27T12:22:58.842Z,19.97
2023-04-27T12:25:25.214Z,20.04
2023-04-27T12:27:51.625Z,20.23
2023-04-27T12:30:17.970Z,20.06
2023-04-27T12:32:44.382Z,20.08
2023-04-27T12:35:10.744Z,20.05
2023-04-27T12:37:37.092Z,20.08
2023-04-27T12:40:03.479Z,20.17
2023-04-27T12:42:29.843Z,20.30
2023-04-27T12:44:56.226Z,20.14
2023-04-27T12:47:45.804Z,20.30
2023-04-27T12:50:08.893Z,20.47
2023-04-27T12:52:35.287Z,20.58
2023-04-27T12:55:01.680Z,20.69
2023-04-27T12:57:28.018Z,20.71
2023-04-27T12:59:54.367Z,20.73
2023-04-27T13:02:20.821Z,20.96
2023-04-27T13:04:47.330Z,21.04
2023-04-27T13:07:13.779Z,21.32
2023-04-27T13:09:40.110Z,21.30
2023-04-27T13:12:06.531Z,21.30
2023-04-27T13:14:32.887Z,21.55
2023-04-27T13:16:59.270Z,21.42
2023-04-27T13:19:25.660Z,21.35
2023-04-27T13:21:52.013Z,21.34
2023-04-27T13:24:18.411Z,21.15
2023-04-27T13:26:44.830Z,21.44
2023-04-27T13:29:11.273Z,21.49
2023-04-27T13:31:37.662Z,21.64
2023-04-27T13:34:04.054Z,21.63
2023-04-27T13:36:30.436Z,21.59
2023-04-27T13:38:56.793Z,21.58
2023-04-27T13:41:23.158Z,21.90
2023-04-27T13:43:49.517Z,21.94
2023-04-27T13:46:15.928Z,21.89
2023-04-27T13:48:42.390Z,21.89
2023-04-27T13:51:08.743Z,21.98
2023-04-27T13:53:35.100Z,22.02
2023-04-27T13:56:01.502Z,22.15
2023-04-27T13:58:27.884Z,22.08
2023-04-27T14:00:54.291Z,22.05
2023-04-27T14:03:20.792Z,21.89
2023-04-27T14:05:47.275Z,22.00
2023-04-27T14:08:13.676Z,21.90
2023-04-27T14:10:40.019Z,21.86
2023-04-27T14:13:06.397Z,21.86
2023-04-27T14:15:32.790Z,21.88
2023-04-27T14:17:59.181Z,21.96
2023-04-27T14:20:25.555Z,22.03
2023-04-27T14:22:51.894Z,22.13
2023-04-27T14:25:18.292Z,22.22
2023-04-27T14:27:44.688Z,22.33
2023-04-27T14:30:11.028Z,22.49
2023-04-27T14:32:37.486Z,22.63
2023-04-27T14:35:03.929Z,22.80
2023-04-27T14:37:30.300Z,22.98
2023-04-27T14:39:56.674Z,23.28
2023-04-27T14:42:23.015Z,23.23
2023-04-27T14:44:49.844Z,23.01
2023-04-27T14:47:16.306Z,23.09
2023-04-27T14:49:42.729Z,23.03
2023-04-27T14:52:09.079Z,23.16
2023-04-27T14:54:35.500Z,23.14
2023-04-27T14:57:01.847Z,23.20
2023-04-27T14:59:28.233Z,23.08
2023-04-27T15:01:54.664Z,22.96
2023-04-27T15:04:21.213Z,23.01
2023-04-27T15:06:47.667Z,22.95
2023-04-27T15:09:14.344Z,22.71
2023-04-27T15:11:40.857Z,22.56
2023-04-27T15:14:07.239Z,22.64
2023-04-27T15:16:33.707Z,22.71
2023-04-27T15:19:00.194Z,22.57
2023-04-27T15:21:26.545Z,22.40
2023-04-27T15:23:52.952Z,22.09
2023-04-27T15:26:19.305Z,21.95
2023-04-27T15:28:45.633Z,21.83
2023-04-27T15:31:12.041Z,21.83
2023-04-27T15:33:38.437Z,21.45
2023-04-27T15:36:04.797Z,21.51
2023-04-27T15:38:31.142Z,21.59
2023-04-27T15:40:57.512Z,21.43
2023-04-27T15:43:24.016Z,21.38
2023-04-27T15:45:50.428Z,21.14
2023-04-27T15:48:16.760Z,21.09
2023-04-27T15:50:43.102Z,21.14
2023-04-27T15:53:09.489Z,21.02
2023-04-27T15:55:35.833Z,21.11
2023-04-27T15:58:02.153Z,21.11
2023-04-27T16:00:28.534Z,21.08
2023-04-27T16:02:54.983Z,21.04
2023-04-27T16:05:21.469Z,21.09
2023-04-27T16:07:47.873Z,21.17
2023-04-27T16:10:14.304Z,21.11
2023-04-27T16:12:40.704Z,21.18
2023-04-27T16:15:09.284Z,21.16
2023-04-27T16:17:37.269Z,21.17
2023-04-27T16:20:03.661Z,21.09
2023-04-27T16:22:30.085Z,21.05
2023-04-27T16:24:56.418Z,21.13
2023-04-27T16:27:22.786Z,21.12
2023-04-27T16:29:49.180Z,21.06
2023-04-27T16:32:15.535Z,21.00
2023-04-27T16:34:41.909Z,20.99
2023-04-27T16:37:08.307Z,20.94
2023-04-27T16:39:34.721Z,20.91
2023-04-27T16:42:01.075Z,20.88
2023-04-27T16:44:27.454Z,20.85
2023-04-27T16:46:53.788Z,20.87
2023-04-27T16:49:20.127Z,20.77
2023-04-27T16:51:46.511Z,20.78
2023-04-27T16:54:12.844Z,20.71
2023-04-27T16:56:39.167Z,20.71
2023-04-27T16:59:05.553Z,20.60
2023-04-27T17:01:31.972Z,20.53
2023-04-27T17:03:58.507Z,20.50
2023-04-27T17:06:25.062Z,20.46
2023-04-27T17:08:51.469Z,20.51
2023-04-27T17:11:17.835Z,20.59
2023-04-27T17:13:44.179Z,20.67
2023-04-27T17:16:10.614Z,20.72
2023-04-27T17:18:37.019Z,20.73
2023-04-27T17:21:03.400Z,20.73
2023-04-27T17:23:29.808Z,20.70
2023-04-27T17:25:56.173Z,20.72
2023-04-27T17:28:22.508Z,20.67
2023-04-27T17:30:48.868Z,20.60
2023-04-27T17:33:15.280Z,20.45
2023-04-27T17:35:41.662Z,20.36
2023-04-27T17:38:08.010Z,20.16
2023-04-27T17:40:34.384Z,19.97
2023-04-27T17:43:00.793Z,19.81
2023-04-27T17:45:27.134Z,19.62
2023-04-27T17:47:53.576Z,19.44
2023-04-27T17:50:19.968Z,19.26
2023-04-27T17:52:46.372Z,19.11
2023-04-27T17:55:12.770Z,19.02
2023-04-27T17:57:39.174Z,18.93
2023-04-27T18:00:05.577Z,18.87
2023-04-27T18:02:32.140Z,18.79
2023-04-27T18:04:58.624Z,18.70
2023-04-27T18:07:25.013Z,18.58
2023-04-27T18:09:51.399Z,18.52
2023-04-27T18:12:17.779Z,18.51
2023-04-27T18:14:44.198Z,18.52
2023-04-27T18:17:10.548Z,18.48
2023-04-27T18:19:36.996Z,18.47
2023-04-27T18:22:03.445Z,18.49
2023-04-27T18:24:29.798Z,18.45
2023-04-27T18:26:56.249Z,18.38
2023-04-27T18:29:22.646Z,18.33
2023-04-27T18:31:49.072Z,18.27
2023-04-27T18:34:15.488Z,18.27
2023-04-27T18:36:41.857Z,18.31
2023-04-27T18:39:08.203Z,18.27
2023-04-27T18:41:34.623Z,18.21
2023-04-27T18:44:01.024Z,18.14
2023-04-27T18:46:27.479Z,18.13
2023-04-27T18:48:53.917Z,18.02
2023-04-27T18:51:20.286Z,17.84
2023-04-27T18:53:46.675Z,17.74
2023-04-27T18:56:13.028Z,17.77
2023-04-27T18:58:39.439Z,17.74
2023-04-27T19:01:05.895Z,17.71
2023-04-27T19:03:32.475Z,17.82
2023-04-27T19:05:59.072Z,17.90
2023-04-27T19:08:25.591Z,17.89
2023-04-27T19:10:52.006Z,17.92
2023-04-27T19:13:18.352Z,18.06
2023-04-27T19:15:44.730Z,18.09
2023-04-27T19:18:11.830Z,18.02
2023-04-27T19:20:38.530Z,17.95
2023-04-27T19:23:04.938Z,17.89
2023-04-27T19:25:31.328Z,18.02
2023-04-27T19:27:57.681Z,18.07
2023-04-27T19:30:24.047Z,18.13
2023-04-27T19:32:50.469Z,18.19
2023-04-27T19:35:16.828Z,18.14
2023-04-27T19:37:43.209Z,18.03
2023-04-27T19:40:09.609Z,17.94
2023-04-27T19:42:35.960Z,17.80
2023-04-27T19:45:02.365Z,17.64
2023-04-27T19:47:28.727Z,17.67
2023-04-27T19:49:55.107Z,17.77
2023-04-27T19:52:21.499Z,17.71
2023-04-27T19:54:47.839Z,17.64
2023-04-27T19:57:14.230Z,17.68
2023-04-27T19:59:40.621Z,17.70
2023-04-27T20:02:07.096Z,17.65
2023-04-27T20:04:33.983Z,17.59
2023-04-27T20:07:00.443Z,17.52
2023-04-27T20:09:26.848Z,17.45
2023-04-27T20:11:53.259Z,17.42
2023-04-27T20:14:19.641Z,17.38
2023-04-27T20:16:46.104Z,17.37
2023-04-27T20:19:12.610Z,17.35
2023-04-27T20:21:39.000Z,17.26
2023-04-27T20:24:05.361Z,17.17
2023-04-27T20:26:31.742Z,17.19
2023-04-27T20:28:58.127Z,17.23
2023-04-27T20:31:24.499Z,17.22
2023-04-27T20:33:50.851Z,17.28
2023-04-27T20:36:18.364Z,17.24
2023-04-27T20:38:44.858Z,17.24
2023-04-27T20:41:11.343Z,17.20
2023-04-27T20:43:37.837Z,17.08
2023-04-27T20:46:04.354Z,17.04
2023-04-27T20:48:30.948Z,17.04
2023-04-27T20:50:57.457Z,16.97
2023-04-27T20:53:24.106Z,16.90
2023-04-27T20:55:50.589Z,16.85
2023-04-27T20:58:17.150Z,16.85
2023-04-27T21:00:43.759Z,16.79
2023-04-27T21:03:10.440Z,16.82
2023-04-27T21:05:37.082Z,16.77
2023-04-27T21:08:03.668Z,16.70
2023-04-27T21:10:30.225Z,16.66
2023-04-27T21:12:56.785Z,16.62
2023-04-27T21:15:23.390Z,16.54
2023-04-27T21:17:49.904Z,16.43
2023-04-27T21:20:16.451Z,16.36
2023-04-27T21:22:42.831Z,16.41
2023-04-27T21:25:09.187Z,16.31
2023-04-27T21:27:35.578Z,16.26
2023-04-27T21:30:01.983Z,16.34
2023-04-27T21:32:28.341Z,16.31
2023-04-27T21:34:54.679Z,16.28
2023-04-27T21:37:21.079Z,16.32
2023-04-27T21:39:47.487Z,16.20
2023-04-27T21:42:13.873Z,16.14
2023-04-27T21:44:40.245Z,16.15
2023-04-27T21:47:06.637Z,16.29
2023-04-27T21:49:32.985Z,16.34
2023-04-27T21:51:59.330Z,16.31
2023-04-27T21:54:25.703Z,16.37
2023-04-27T21:56:52.065Z,16.47
2023-04-27T21:59:18.409Z,16.57
2023-04-27T22:01:44.771Z,16.61
2023-04-27T22:04:11.325Z,16.61
2023-04-27T22:06:37.843Z,16.45
2023-04-27T22:09:06.522Z,16.31
2023-04-27T22:11:34.198Z,16.14
2023-04-27T22:14:00.531Z,16.06
2023-04-27T22:16:26.919Z,16.04
2023-04-27T22:18:53.322Z,16.09
2023-04-27T22:21:19.658Z,16.11
2023-04-27T22:23:46.009Z,16.13
2023-04-27T22:26:12.349Z,16.11
2023-04-27T22:28:38.713Z,16.07
2023-04-27T22:31:05.100Z,16.04
2023-04-27T22:33:31.460Z,16.00
2023-04-27T22:35:57.838Z,15.88
2023-04-27T22:38:24.176Z,15.74
2023-04-27T22:40:50.499Z,15.71
2023-04-27T22:43:16.830Z,15.68
2023-04-27T22:45:43.183Z,15.60
2023-04-27T22:48:09.625Z,15.61
2023-04-27T22:50:36.053Z,15.56
2023-04-27T22:53:02.405Z,15.47
2023-04-27T22:55:28.790Z,15.47
2023-04-27T22:57:55.168Z,15.45
2023-04-27T23:00:21.545Z,15.74
2023-04-27T23:02:48.051Z,15.76
2023-04-27T23:05:14.508Z,15.65
2023-04-27T23:07:40.893Z,15.58
2023-04-27T23:10:07.248Z,15.50
2023-04-27T23:12:33.600Z,15.42
2023-04-27T23:14:59.994Z,15.40
2023-04-27T23:17:26.354Z,15.30
2023-04-27T23:19:52.737Z,15.25
2023-04-27T23:22:19.082Z,15.22
2023-04-27T23:24:45.423Z,15.25
2023-04-27T23:27:11.765Z,15.27
2023-04-27T23:29:38.167Z,15.33
2023-04-27T23:32:04.682Z,15.38
2023-04-27T23:34:31.220Z,15.43
2023-04-27T23:36:57.817Z,15.48
2023-04-27T23:39:24.202Z,15.60
2023-04-27T23:41:50.589Z,15.53
2023-04-27T23:44:17.201Z,15.48
2023-04-27T23:46:43.806Z,15.54
2023-04-27T23:49:10.210Z,15.52
2023-04-27T23:51:36.572Z,15.52
2023-04-27T23:54:02.960Z,15.54
2023-04-27T23:56:29.349Z,15.61
2023-04-27T23:58:55.699Z,15.74
